Time;durP1;ratioP1;P1;durP2;ratioP2;P2;SDS_P1;SDS_P2;PMS_P1;PMS_P2;Temp;Humidity;BMP_temperature;BMP_pressure;BME280_temperature;BME280_humidity;BME280_pressure;Samples;Min_cycle;Max_cycle;Signal;HPM_P1;HPM_P2
2022/04/14 00:00:28;;;;;;;26.42;18.05;;;16.60;99.90;;;;;;4127477;28;20042;-63
2022/04/14 00:02:29;;;;;;;29.58;19.13;;;16.60;99.90;;;;;;4128963;28;20084;-63
2022/04/14 00:04:30;;;;;;;28.95;19.70;;;16.60;99.90;;;;;;4127244;28;20046;-63
2022/04/14 00:06:31;;;;;;;29.27;19.20;;;16.60;99.90;;;;;;4127345;28;20421;-63
2022/04/14 00:08:32;;;;;;;26.70;19.40;;;16.60;99.90;;;;;;4129305;28;20093;-63
2022/04/14 00:10:32;;;;;;;27.25;19.15;;;16.60;99.90;;;;;;4127890;28;20453;-63
2022/04/14 00:12:33;;;;;;;28.52;19.15;;;16.60;99.90;;;;;;4128992;28;20093;-63
2022/04/14 00:14:33;;;;;;;29.45;19.88;;;16.60;99.90;;;;;;4128075;28;20433;-63
2022/04/14 00:16:34;;;;;;;27.65;19.00;;;16.60;99.90;;;;;;4126659;28;20080;-63
2022/04/14 00:18:35;;;;;;;27.23;19.20;;;16.60;99.90;;;;;;4128419;28;20031;-63
2022/04/14 00:20:35;;;;;;;27.60;18.58;;;16.50;99.90;;;;;;4127876;28;20027;-64
2022/04/14 00:22:37;;;;;;;25.38;19.00;;;16.50;99.90;;;;;;4129374;28;20034;-63
2022/04/14 00:24:37;;;;;;;24.25;17.77;;;16.50;99.90;;;;;;4129516;28;20034;-63
2022/04/14 00:26:38;;;;;;;26.02;18.48;;;16.50;99.90;;;;;;4127648;28;20037;-63
2022/04/14 00:28:39;;;;;;;24.63;18.25;;;16.50;99.90;;;;;;4128766;28;20092;-63
2022/04/14 00:30:39;;;;;;;28.90;19.95;;;16.50;99.90;;;;;;4127102;28;20026;-63
2022/04/14 00:32:40;;;;;;;29.48;21.17;;;16.50;99.90;;;;;;4128400;28;20570;-63
2022/04/14 00:34:41;;;;;;;24.88;19.13;;;16.50;99.90;;;;;;4128354;28;20041;-63
2022/04/14 00:36:42;;;;;;;25.13;17.95;;;16.50;99.90;;;;;;4128037;28;20545;-63
2022/04/14 00:38:42;;;;;;;29.80;20.80;;;16.50;99.90;;;;;;4126924;28;20034;-63
2022/04/14 00:40:43;;;;;;;28.58;20.33;;;16.50;99.90;;;;;;4128784;28;20037;-63
2022/04/14 00:42:44;;;;;;;30.23;21.17;;;16.40;99.90;;;;;;4128734;28;20042;-63
2022/04/14 00:44:44;;;;;;;29.60;21.08;;;16.40;99.90;;;;;;4127317;28;20031;-64
2022/04/14 00:46:45;;;;;;;29.35;20.90;;;16.40;99.90;;;;;;4128083;28;20118;-65
2022/04/14 00:48:46;;;;;;;29.88;21.40;;;16.40;99.90;;;;;;4127082;28;20035;-64
2022/04/14 00:50:47;;;;;;;28.40;19.85;;;16.30;99.90;;;;;;4127595;28;20139;-64
2022/04/14 00:52:47;;;;;;;29.60;19.70;;;16.30;99.90;;;;;;4128832;28;20121;-64
2022/04/14 00:54:48;;;;;;;29.85;21.48;;;16.30;99.90;;;;;;4128237;28;20066;-64
2022/04/14 00:56:49;;;;;;;27.75;18.98;;;16.30;99.90;;;;;;4127531;28;20037;-64
2022/04/14 00:58:49;;;;;;;29.63;20.15;;;16.20;99.90;;;;;;4127958;28;20042;-63
2022/04/14 01:00:50;;;;;;;26.77;19.25;;;16.20;99.90;;;;;;4127393;28;20046;-63
2022/04/14 01:02:51;;;;;;;29.73;20.38;;;16.20;99.90;;;;;;4127236;28;20138;-63
2022/04/14 01:04:52;;;;;;;30.83;21.80;;;16.20;99.90;;;;;;4127148;28;20034;-64
2022/04/14 01:06:53;;;;;;;29.50;21.50;;;16.10;99.90;;;;;;4126942;28;20038;-63
2022/04/14 01:11:14;;;;;;;29.13;20.10;;;16.20;99.90;;;;;;4126791;28;20375;-66
2022/04/14 01:13:18;;;;;;;33.22;23.35;;;16.10;99.90;;;;;;4127004;28;20038;-64
2022/04/14 01:15:19;;;;;;;28.67;20.95;;;16.10;99.90;;;;;;4127799;28;20125;-64
2022/04/14 01:17:20;;;;;;;30.70;21.33;;;16.10;99.90;;;;;;4128247;28;20038;-64
2022/04/14 01:19:20;;;;;;;29.73;21.42;;;16.10;99.90;;;;;;4127595;28;20034;-64
2022/04/14 01:21:21;;;;;;;28.75;21.27;;;16.10;99.90;;;;;;4127168;28;20504;-64
2022/04/14 01:23:42;;;;;;;30.73;20.50;;;16.00;99.90;;;;;;4127885;28;20033;-64
2022/04/14 01:25:43;;;;;;;29.40;20.15;;;16.00;99.90;;;;;;4123966;28;20042;-64
2022/04/14 01:27:43;;;;;;;31.10;22.33;;;16.00;99.90;;;;;;4128726;28;20498;-64
2022/04/14 01:29:46;;;;;;;33.13;21.58;;;16.00;99.90;;;;;;4128270;28;20069;-64
2022/04/14 01:31:46;;;;;;;29.77;19.98;;;16.00;99.90;;;;;;4127606;28;20038;-64
2022/04/14 01:33:47;;;;;;;31.70;21.02;;;16.00;99.90;;;;;;4128446;28;20057;-63
2022/04/14 01:35:47;;;;;;;29.23;20.00;;;16.00;99.90;;;;;;4126967;28;20035;-64
2022/04/14 01:37:48;;;;;;;28.52;19.88;;;16.10;99.90;;;;;;4127268;28;20110;-64
2022/04/14 01:39:49;;;;;;;33.08;21.80;;;16.10;99.90;;;;;;4127553;28;20092;-64
2022/04/14 01:41:49;;;;;;;32.47;21.48;;;16.10;99.90;;;;;;4127329;28;20046;-64
2022/04/14 01:43:50;;;;;;;32.90;22.85;;;16.10;99.90;;;;;;4126195;28;20046;-64
2022/04/14 01:45:51;;;;;;;34.38;21.77;;;16.00;99.90;;;;;;4126509;28;20114;-64
2022/04/14 01:47:51;;;;;;;26.52;18.88;;;16.00;99.90;;;;;;4126477;28;20089;-64
2022/04/14 01:49:52;;;;;;;27.70;20.20;;;16.10;99.90;;;;;;4127723;28;20047;-63
2022/04/14 01:51:53;;;;;;;28.90;19.73;;;16.00;99.90;;;;;;4127125;28;20022;-64
2022/04/14 01:53:53;;;;;;;29.65;20.65;;;15.90;99.90;;;;;;4127210;28;20498;-64
2022/04/14 01:55:54;;;;;;;25.70;18.90;;;15.90;99.90;;;;;;4127377;28;20039;-63
2022/04/14 01:57:55;;;;;;;27.48;20.33;;;15.90;99.90;;;;;;4126759;28;20118;-64
2022/04/14 01:59:59;;;;;;;27.38;19.88;;;15.90;99.90;;;;;;4128543;28;20117;-64
2022/04/14 02:02:00;;;;;;;27.75;19.15;;;15.90;99.90;;;;;;4128907;28;20027;-63
2022/04/14 02:04:02;;;;;;;25.58;18.35;;;15.90;99.90;;;;;;4130690;28;20139;-64
2022/04/14 02:06:03;;;;;;;25.45;19.13;;;16.00;99.90;;;;;;4130421;28;20441;-63
2022/04/14 02:08:04;;;;;;;25.85;18.13;;;16.00;99.90;;;;;;4129252;28;20030;-64
2022/04/14 02:10:05;;;;;;;25.50;18.33;;;15.90;99.90;;;;;;4130312;28;20062;-65
2022/04/14 02:12:05;;;;;;;27.58;19.58;;;15.90;99.90;;;;;;4128879;28;20695;-66
2022/04/14 02:14:06;;;;;;;31.77;22.23;;;16.00;99.90;;;;;;4129289;28;20093;-65
2022/04/14 02:16:07;;;;;;;33.15;22.75;;;16.00;99.90;;;;;;4129771;28;20046;-65
2022/04/14 02:18:07;;;;;;;32.20;22.63;;;15.90;99.90;;;;;;4130071;28;20038;-65
2022/04/14 02:20:08;;;;;;;31.70;23.35;;;16.00;99.90;;;;;;4130261;28;20056;-65
2022/04/14 02:22:09;;;;;;;31.35;22.33;;;15.90;99.90;;;;;;4130880;28;20030;-64
2022/04/14 02:24:10;;;;;;;33.63;25.13;;;15.90;99.90;;;;;;4130236;28;20109;-63
2022/04/14 02:26:10;;;;;;;33.63;23.55;;;15.90;99.90;;;;;;4127519;28;20479;-63
2022/04/14 02:28:11;;;;;;;34.35;24.20;;;15.90;99.90;;;;;;4129521;28;20084;-63
2022/04/14 02:30:12;;;;;;;35.47;25.52;;;15.90;99.90;;;;;;4128684;28;20045;-64
2022/04/14 02:32:12;;;;;;;35.67;23.50;;;15.90;99.90;;;;;;4129035;28;20022;-63
2022/04/14 02:34:14;;;;;;;36.67;26.70;;;15.80;99.90;;;;;;4129155;28;20036;-63
2022/04/14 02:36:15;;;;;;;35.53;25.33;;;15.80;99.90;;;;;;4129915;28;20066;-63
2022/04/14 02:38:15;;;;;;;33.00;23.55;;;15.70;99.90;;;;;;4130478;28;20042;-63
2022/04/14 02:40:16;;;;;;;37.00;24.77;;;15.70;99.90;;;;;;4128748;28;20478;-65
2022/04/14 02:42:17;;;;;;;39.00;26.10;;;15.70;99.90;;;;;;4130136;28;20062;-64
2022/04/14 02:44:17;;;;;;;35.28;24.90;;;15.60;99.90;;;;;;4129236;28;20046;-64
2022/04/14 02:46:18;;;;;;;37.80;26.40;;;15.60;99.90;;;;;;4128934;28;20041;-64
2022/04/14 02:48:18;;;;;;;35.78;25.60;;;15.60;99.90;;;;;;4130095;28;20517;-64
2022/04/14 02:50:20;;;;;;;38.45;25.42;;;15.60;99.90;;;;;;4129234;28;20445;-64
2022/04/14 02:52:21;;;;;;;33.60;24.30;;;15.50;99.90;;;;;;4129121;28;20089;-63
2022/04/14 02:54:21;;;;;;;32.03;22.98;;;15.50;99.90;;;;;;4127496;28;20113;-64
2022/04/14 02:56:22;;;;;;;35.85;24.52;;;15.50;99.90;;;;;;4128150;28;20049;-63
2022/04/14 02:58:23;;;;;;;34.28;24.60;;;15.50;99.90;;;;;;4128710;28;20039;-64
2022/04/14 03:00:23;;;;;;;36.70;24.75;;;15.50;99.90;;;;;;4128731;28;21049;-64
2022/04/14 03:02:24;;;;;;;34.40;23.55;;;15.40;99.90;;;;;;4129774;28;20092;-64
2022/04/14 03:04:25;;;;;;;39.38;25.15;;;15.40;99.90;;;;;;4127769;28;20089;-63
2022/04/14 03:06:25;;;;;;;35.40;23.92;;;15.50;99.90;;;;;;4128817;28;20359;-63
2022/04/14 03:08:26;;;;;;;35.90;24.45;;;15.40;99.90;;;;;;4128784;28;20038;-63
2022/04/14 03:10:26;;;;;;;34.42;24.13;;;15.40;99.90;;;;;;4126276;28;20042;-64
2022/04/14 03:12:39;;;;;;;34.60;24.75;;;15.40;99.90;;;;;;4128941;28;20034;-64
2022/04/14 03:14:40;;;;;;;35.92;24.25;;;15.40;99.90;;;;;;4129310;28;20034;-64
2022/04/14 03:16:40;;;;;;;32.00;23.27;;;15.40;99.90;;;;;;4126467;28;20034;-63
2022/04/14 03:18:41;;;;;;;38.22;24.40;;;15.40;99.90;;;;;;4128912;28;20038;-64
2022/04/14 03:20:42;;;;;;;37.30;23.83;;;15.40;99.90;;;;;;4125326;28;20449;-63
2022/04/14 03:22:43;;;;;;;35.67;24.13;;;15.40;99.90;;;;;;4129489;28;20030;-63
2022/04/14 03:24:43;;;;;;;37.70;25.13;;;15.40;99.90;;;;;;4128846;28;20039;-63
2022/04/14 03:26:44;;;;;;;36.65;25.05;;;15.40;99.90;;;;;;4128289;28;20359;-63
2022/04/14 03:28:44;;;;;;;36.72;25.35;;;15.40;99.90;;;;;;4127075;28;20049;-63
2022/04/14 03:30:45;;;;;;;37.30;25.33;;;15.40;99.90;;;;;;4127912;28;20030;-63
2022/04/14 03:32:46;;;;;;;36.30;26.00;;;15.40;99.90;;;;;;4128180;28;20037;-63
2022/04/14 03:34:47;;;;;;;38.38;25.95;;;15.40;99.90;;;;;;4128909;28;20057;-65
2022/04/14 03:36:48;;;;;;;40.83;25.70;;;15.40;99.90;;;;;;4128715;28;20133;-63
2022/04/14 03:38:48;;;;;;;36.38;25.30;;;15.30;99.90;;;;;;4129139;28;20046;-64
2022/04/14 03:40:49;;;;;;;38.78;26.60;;;15.40;99.90;;;;;;4127341;28;20030;-63
2022/04/14 03:42:49;;;;;;;37.97;25.63;;;15.40;99.90;;;;;;4128217;28;20061;-63
2022/04/14 03:44:50;;;;;;;37.78;24.95;;;15.40;99.90;;;;;;4128647;28;20046;-63
2022/04/14 03:46:51;;;;;;;37.42;24.45;;;15.40;99.90;;;;;;4126744;28;20314;-64
2022/04/14 03:48:53;;;;;;;41.78;27.63;;;15.40;99.90;;;;;;4127863;28;20117;-63
2022/04/14 03:50:54;;;;;;;40.10;27.27;;;15.50;99.90;;;;;;4127982;28;20030;-63
2022/04/14 03:52:55;;;;;;;39.25;26.77;;;15.40;99.90;;;;;;4128841;28;20044;-63
2022/04/14 03:54:57;;;;;;;39.25;26.83;;;15.40;99.90;;;;;;4128602;28;20050;-64
2022/04/14 03:56:57;;;;;;;38.83;27.15;;;15.50;99.90;;;;;;4127846;28;20046;-63
2022/04/14 03:59:00;;;;;;;34.83;24.75;;;15.50;99.90;;;;;;4127733;28;20078;-63
2022/04/14 04:01:01;;;;;;;;;;;15.40;99.90;;;;;;4127328;28;20058;-63
2022/04/14 04:03:01;;;;;;;39.15;26.10;;;15.40;99.90;;;;;;4127766;28;19917;-63
2022/04/14 04:05:02;;;;;;;37.78;26.98;;;15.40;99.90;;;;;;4122970;28;20039;-65
2022/04/14 04:07:04;;;;;;;36.53;24.45;;;15.40;99.90;;;;;;4125183;28;20092;-63
2022/04/14 04:09:05;;;;;;;45.80;29.65;;;15.40;99.90;;;;;;4127543;28;20038;-63
2022/04/14 04:11:06;;;;;;;44.33;29.30;;;15.30;99.90;;;;;;4126317;28;20050;-63
2022/04/14 04:13:06;;;;;;;55.90;35.75;;;15.40;99.90;;;;;;4126747;28;20697;-63
2022/04/14 04:15:07;;;;;;;50.55;33.08;;;15.30;99.90;;;;;;4124919;28;20049;-64
2022/04/14 04:17:08;;;;;;;48.40;30.50;;;15.30;99.90;;;;;;4128122;28;20042;-63
2022/04/14 04:19:09;;;;;;;49.30;32.28;;;15.30;99.90;;;;;;4127416;28;20031;-64
2022/04/14 04:21:09;;;;;;;51.92;33.03;;;15.20;99.90;;;;;;4126724;28;20031;-63
2022/04/14 04:23:10;;;;;;;52.85;32.35;;;15.20;99.90;;;;;;4127786;28;20447;-63
2022/04/14 04:25:11;;;;;;;53.28;34.05;;;15.30;99.90;;;;;;4124966;28;20319;-65
2022/04/14 04:27:11;;;;;;;48.38;31.90;;;15.20;99.90;;;;;;4132729;28;20475;-64
2022/04/14 04:29:12;;;;;;;58.35;34.22;;;15.20;99.90;;;;;;4126943;28;20034;-63
2022/04/14 04:31:13;;;;;;;52.88;33.63;;;15.20;99.90;;;;;;4127665;28;20030;-64
2022/04/14 04:33:13;;;;;;;57.65;36.67;;;15.20;99.90;;;;;;4131551;28;20027;-63
2022/04/14 04:35:14;;;;;;;61.28;35.97;;;15.10;99.90;;;;;;4125315;28;20117;-63
2022/04/14 04:37:15;;;;;;;65.28;37.80;;;15.10;99.90;;;;;;4136249;28;20371;-63
2022/04/14 04:39:16;;;;;;;60.58;38.67;;;15.00;99.90;;;;;;4123715;28;20037;-64
2022/04/14 04:41:17;;;;;;;53.80;33.67;;;15.00;99.90;;;;;;4126090;28;20034;-64
2022/04/14 04:43:17;;;;;;;59.72;36.45;;;15.00;99.90;;;;;;4126519;28;20031;-63
2022/04/14 04:45:18;;;;;;;55.67;33.50;;;14.90;99.90;;;;;;4125059;28;20379;-63
2022/04/14 04:47:20;;;;;;;51.08;32.15;;;14.90;99.90;;;;;;4123605;28;20454;-64
2022/04/14 04:49:20;;;;;;;46.92;29.98;;;14.90;99.90;;;;;;4120655;28;20088;-64
2022/04/14 04:51:21;;;;;;;45.30;29.88;;;14.90;99.90;;;;;;4124359;28;20484;-63
2022/04/14 04:53:22;;;;;;;47.08;30.27;;;14.90;99.90;;;;;;4125557;28;20026;-63
2022/04/14 04:55:22;;;;;;;47.40;30.17;;;15.00;99.90;;;;;;4125438;28;20088;-63
2022/04/14 04:57:23;;;;;;;47.63;30.58;;;15.00;99.90;;;;;;4125260;28;20089;-63
2022/04/14 04:59:24;;;;;;;54.85;33.78;;;15.00;99.90;;;;;;4124525;28;20042;-63
2022/04/14 05:01:24;;;;;;;51.85;31.13;;;15.00;99.90;;;;;;4125894;28;20046;-64
2022/04/14 05:03:25;;;;;;;50.13;31.38;;;15.00;99.90;;;;;;4126834;28;20038;-63
2022/04/14 05:05:26;;;;;;;51.85;32.95;;;15.00;99.90;;;;;;4125170;28;20034;-63
2022/04/14 05:07:26;;;;;;;48.53;30.20;;;15.00;99.90;;;;;;4126202;28;20121;-63
2022/04/14 05:09:27;;;;;;;49.40;31.40;;;15.00;99.90;;;;;;4124786;28;24528;-63
2022/04/14 05:11:28;;;;;;;49.33;30.83;;;15.00;99.90;;;;;;4125664;28;20512;-63
2022/04/14 05:13:28;;;;;;;49.75;32.40;;;15.00;99.90;;;;;;4128337;28;20481;-63
2022/04/14 05:15:29;;;;;;;49.65;31.50;;;15.00;99.90;;;;;;4126985;28;20030;-64
2022/04/14 05:17:30;;;;;;;50.78;31.20;;;15.00;99.90;;;;;;4126988;28;20034;-63
2022/04/14 05:19:30;;;;;;;49.15;31.10;;;15.00;99.90;;;;;;4123263;28;20034;-63
2022/04/14 05:21:31;;;;;;;44.88;29.63;;;15.00;99.90;;;;;;4125727;28;20027;-63
2022/04/14 05:23:31;;;;;;;42.28;27.45;;;15.00;99.90;;;;;;4125093;28;20165;-63
2022/04/14 05:25:32;;;;;;;45.25;29.13;;;15.00;99.90;;;;;;4124732;28;20467;-63
2022/04/14 05:27:33;;;;;;;41.80;27.02;;;15.00;99.90;;;;;;4129200;28;20042;-63
2022/04/14 05:29:35;;;;;;;44.45;28.70;;;15.10;99.90;;;;;;4123511;28;20034;-63
2022/04/14 05:31:36;;;;;;;40.13;26.10;;;15.10;99.90;;;;;;4126702;28;20077;-63
2022/04/14 05:33:36;;;;;;;45.72;29.20;;;15.00;99.90;;;;;;4127759;28;20433;-63
2022/04/14 05:35:38;;;;;;;44.65;27.50;;;15.00;99.90;;;;;;4126137;28;20116;-64
2022/04/14 05:37:39;;;;;;;43.30;27.53;;;15.10;99.90;;;;;;4122766;28;20121;-65
2022/04/14 05:39:39;;;;;;;39.35;27.05;;;15.10;99.90;;;;;;4121298;28;20112;-65
2022/04/14 05:41:40;;;;;;;42.58;26.00;;;15.10;99.90;;;;;;4122628;28;20168;-64
2022/04/14 05:43:41;;;;;;;39.28;26.27;;;15.10;99.90;;;;;;4124562;28;20046;-64
2022/04/14 05:45:44;;;;;;;38.08;24.80;;;15.10;99.90;;;;;;4124104;28;20076;-64
2022/04/14 05:47:45;;;;;;;38.38;24.80;;;15.20;99.90;;;;;;4122830;28;20105;-64
2022/04/14 05:49:45;;;;;;;37.08;23.55;;;15.20;99.90;;;;;;4122958;28;20740;-64
2022/04/14 05:51:46;;;;;;;43.35;27.58;;;15.20;99.90;;;;;;4124245;28;20250;-64
2022/04/14 05:53:52;;;;;;;38.40;25.17;;;15.20;99.90;;;;;;4122438;28;20125;-64
2022/04/14 05:55:53;;;;;;;37.35;24.88;;;15.10;99.90;;;;;;4123382;28;20067;-63
2022/04/14 05:57:54;;;;;;;35.08;24.00;;;15.10;99.90;;;;;;4124770;28;20031;-64
2022/04/14 05:59:55;;;;;;;37.28;24.90;;;15.10;99.90;;;;;;4122489;28;20046;-64
2022/04/14 06:01:55;;;;;;;40.33;26.73;;;15.10;99.90;;;;;;4124653;28;20034;-64
2022/04/14 06:03:56;;;;;;;41.28;24.98;;;15.10;99.90;;;;;;4123854;28;20034;-64
2022/04/14 06:05:58;;;;;;;35.75;24.45;;;15.10;99.90;;;;;;4115027;28;20045;-64
2022/04/14 06:08:00;;;;;;;35.40;23.73;;;15.00;99.90;;;;;;4117196;28;20041;-64
2022/04/14 06:10:00;;;;;;;35.65;22.00;;;15.00;99.90;;;;;;4126612;28;20026;-64
2022/04/14 06:12:01;;;;;;;33.45;22.92;;;15.00;99.90;;;;;;4124302;28;20102;-64
2022/04/14 06:14:01;;;;;;;30.38;20.95;;;15.00;99.90;;;;;;4122967;28;20034;-64
2022/04/14 06:16:02;;;;;;;32.75;21.92;;;15.00;99.90;;;;;;4114589;28;20114;-64
2022/04/14 06:18:03;;;;;;;31.30;20.90;;;15.00;99.90;;;;;;4119072;28;20039;-64
2022/04/14 06:20:04;;;;;;;32.60;21.92;;;15.00;99.90;;;;;;4125245;28;20043;-64
2022/04/14 06:22:05;;;;;;;34.13;23.27;;;15.00;99.90;;;;;;4123482;28;20030;-64
2022/04/14 06:24:06;;;;;;;34.05;23.33;;;15.00;99.90;;;;;;4123530;28;20044;-64
2022/04/14 06:26:07;;;;;;;33.80;22.05;;;15.00;99.90;;;;;;4123030;28;20093;-64
2022/04/14 06:28:08;;;;;;;33.47;22.15;;;15.00;99.90;;;;;;4121015;28;20096;-64
2022/04/14 06:30:10;;;;;;;32.20;21.83;;;15.00;99.90;;;;;;4118921;28;20576;-66
2022/04/14 06:32:10;;;;;;;32.00;21.70;;;15.00;99.90;;;;;;4128470;28;20471;-64
2022/04/14 06:34:11;;;;;;;31.08;20.88;;;14.90;99.90;;;;;;4125506;28;20270;-64
2022/04/14 06:36:11;;;;;;;29.08;19.90;;;14.90;99.90;;;;;;4122114;28;20030;-64
2022/04/14 06:38:12;;;;;;;32.92;21.65;;;14.90;99.90;;;;;;4121223;28;20038;-64
2022/04/14 06:40:12;;;;;;;30.45;20.48;;;15.00;99.90;;;;;;4118618;28;20096;-65
2022/04/14 06:42:13;;;;;;;30.13;20.25;;;15.00;99.90;;;;;;4122527;28;20030;-64
2022/04/14 06:44:14;;;;;;;29.65;19.48;;;15.00;99.90;;;;;;4118122;28;20043;-64
2022/04/14 06:46:15;;;;;;;29.95;20.02;;;15.00;99.90;;;;;;4125554;28;20027;-64
2022/04/14 06:48:15;;;;;;;26.90;18.10;;;15.00;99.90;;;;;;4122124;28;20137;-64
2022/04/14 06:50:16;;;;;;;29.27;19.77;;;15.10;99.90;;;;;;4122907;28;20116;-64
2022/04/14 06:52:17;;;;;;;31.08;20.90;;;15.20;99.90;;;;;;4126254;28;20359;-65
2022/04/14 06:54:18;;;;;;;29.58;20.30;;;15.30;99.90;;;;;;4126196;28;20569;-64
2022/04/14 06:56:18;;;;;;;27.83;19.42;;;15.40;99.90;;;;;;4126859;28;20041;-64
2022/04/14 06:58:20;;;;;;;26.67;18.63;;;15.60;99.90;;;;;;4123662;28;20034;-64
2022/04/14 07:00:21;;;;;;;25.55;17.83;;;15.80;99.90;;;;;;4125657;28;20046;-64
2022/04/14 07:02:22;;;;;;;28.25;19.40;;;16.00;99.90;;;;;;4124084;28;20052;-64
2022/04/14 07:04:23;;;;;;;28.67;19.13;;;16.10;99.90;;;;;;4124586;28;20402;-64
2022/04/14 07:06:23;;;;;;;27.17;18.42;;;16.30;99.90;;;;;;4124489;28;20046;-64
2022/04/14 07:08:24;;;;;;;29.08;18.40;;;16.40;99.90;;;;;;4126727;28;20038;-64
2022/04/14 07:10:27;;;;;;;27.80;17.77;;;16.50;99.90;;;;;;4126077;28;20050;-64
2022/04/14 07:12:27;;;;;;;27.38;17.52;;;16.60;99.90;;;;;;4124484;28;20090;-64
2022/04/14 07:14:30;;;;;;;24.15;16.52;;;16.80;99.90;;;;;;4124070;28;20046;-64
2022/04/14 07:16:30;;;;;;;27.05;17.08;;;16.90;99.90;;;;;;4125307;28;20566;-64
2022/04/14 07:18:31;;;;;;;25.42;16.63;;;17.00;99.90;;;;;;4125340;28;20122;-64
2022/04/14 07:20:31;;;;;;;20.33;14.90;;;17.10;99.90;;;;;;4126408;28;20046;-64
2022/04/14 07:22:47;;;;;;;22.88;15.70;;;17.10;99.90;;;;;;4126199;28;20042;-64
2022/04/14 07:24:49;;;;;;;22.52;15.32;;;17.20;99.90;;;;;;4123570;28;20490;-64
2022/04/14 07:26:49;;;;;;;29.92;18.42;;;17.30;99.90;;;;;;4125410;28;20034;-64
2022/04/14 07:28:50;;;;;;;23.13;15.48;;;17.30;99.90;;;;;;4126157;28;20038;-64
2022/04/14 07:30:50;;;;;;;24.85;17.10;;;17.40;99.90;;;;;;4129836;28;20405;-64
2022/04/14 07:32:51;;;;;;;21.85;15.50;;;17.50;99.90;;;;;;4124497;28;20043;-64
2022/04/14 07:34:51;;;;;;;23.50;15.15;;;17.60;99.90;;;;;;4125894;28;20049;-64
2022/04/14 07:36:52;;;;;;;21.55;15.05;;;17.70;99.90;;;;;;4125399;28;20042;-64
2022/04/14 07:38:53;;;;;;;28.13;18.30;;;17.80;99.90;;;;;;4121743;28;20042;-64
2022/04/14 07:40:56;;;;;;;27.52;17.42;;;17.90;99.90;;;;;;4125028;28;20038;-65
2022/04/14 07:42:57;;;;;;;28.08;18.42;;;17.90;99.90;;;;;;4125777;28;20317;-64
2022/04/14 07:44:58;;;;;;;25.30;17.83;;;18.00;99.90;;;;;;4125329;28;20042;-64
2022/04/14 07:46:59;;;;;;;26.42;16.80;;;18.00;99.90;;;;;;4126064;28;20048;-64
2022/04/14 07:49:00;;;;;;;29.67;17.70;;;18.10;99.90;;;;;;4123918;28;20046;-63
2022/04/14 07:51:01;;;;;;;26.60;18.05;;;18.10;99.90;;;;;;4125636;28;20433;-64
2022/04/14 07:53:02;;;;;;;30.08;20.50;;;18.20;99.90;;;;;;4125955;28;20042;-64
2022/04/14 07:55:02;;;;;;;33.40;21.90;;;18.20;99.90;;;;;;4125755;28;20468;-66
2022/04/14 07:57:03;;;;;;;34.63;21.70;;;18.20;99.90;;;;;;4121840;28;20104;-64
2022/04/14 07:59:04;;;;;;;29.90;20.98;;;18.30;99.90;;;;;;4126268;28;20050;-64
2022/04/14 08:01:05;;;;;;;30.25;19.73;;;18.30;99.90;;;;;;4123490;28;20054;-63
2022/04/14 08:03:07;;;;;;;35.22;22.65;;;18.30;99.90;;;;;;4126354;28;20035;-63
2022/04/14 08:05:08;;;;;;;32.07;21.47;;;18.40;99.90;;;;;;4123722;28;20109;-64
2022/04/14 08:07:08;;;;;;;35.28;22.13;;;18.40;99.90;;;;;;4124706;28;20490;-64
2022/04/14 08:09:09;;;;;;;28.40;19.60;;;18.40;99.90;;;;;;4128698;28;20088;-63
2022/04/14 08:11:10;;;;;;;43.03;27.60;;;18.50;99.90;;;;;;4123685;28;20045;-64
2022/04/14 08:13:12;;;;;;;31.48;21.73;;;18.40;99.90;;;;;;4125642;28;20482;-65
2022/04/14 08:15:12;;;;;;;36.10;23.85;;;18.30;99.90;;;;;;4124542;28;20031;-64
2022/04/14 08:17:13;;;;;;;30.15;19.95;;;18.40;99.90;;;;;;4124918;28;20108;-64
2022/04/14 08:19:14;;;;;;;36.75;24.35;;;18.50;99.90;;;;;;4125298;28;20073;-64
2022/04/14 08:21:14;;;;;;;32.33;21.52;;;18.50;99.90;;;;;;4125813;28;20027;-64
2022/04/14 08:23:16;;;;;;;34.83;22.88;;;18.60;99.90;;;;;;4123887;28;20042;-64
2022/04/14 08:25:20;;;;;;;28.90;19.98;;;18.70;99.90;;;;;;4123098;28;20041;-63
2022/04/14 08:27:21;;;;;;;26.60;18.80;;;18.80;99.90;;;;;;4123962;28;20043;-64
2022/04/14 08:29:21;;;;;;;27.92;19.65;;;18.90;99.90;;;;;;4124278;28;20133;-64
2022/04/14 08:31:23;;;;;;;33.42;22.70;;;19.00;99.90;;;;;;4123674;28;20636;-65
2022/04/14 08:33:24;;;;;;;31.67;21.03;;;19.10;99.90;;;;;;4124245;28;20047;-64
2022/04/14 08:35:26;;;;;;;29.13;20.20;;;19.10;99.90;;;;;;4124608;28;20320;-64
2022/04/14 08:37:26;;;;;;;28.02;19.85;;;19.30;99.90;;;;;;4124324;28;20061;-64
2022/04/14 08:39:29;;;;;;;34.03;23.60;;;19.30;99.90;;;;;;4123146;28;20133;-64
2022/04/14 08:41:32;;;;;;;43.45;27.83;;;19.40;99.90;;;;;;4122627;28;20096;-64
2022/04/14 08:43:35;;;;;;;40.50;28.02;;;19.40;99.90;;;;;;4124537;28;20100;-64
2022/04/14 08:45:43;;;;;;;42.40;27.77;;;19.40;99.90;;;;;;4124375;28;20042;-64
2022/04/14 08:47:43;;;;;;;35.35;25.77;;;19.40;99.90;;;;;;4121904;28;20062;-65
2022/04/14 08:49:45;;;;;;;46.55;30.83;;;19.40;99.90;;;;;;4123576;28;20034;-64
2022/04/14 08:51:47;;;;;;;38.40;26.75;;;19.40;99.90;;;;;;4123501;28;20389;-64
2022/04/14 08:53:49;;;;;;;38.47;27.00;;;19.40;99.90;;;;;;4123666;28;20026;-64
2022/04/14 08:55:50;;;;;;;39.22;27.55;;;19.40;99.90;;;;;;4124022;28;20046;-64
2022/04/14 08:57:52;;;;;;;36.85;24.92;;;19.40;99.90;;;;;;4124023;28;20042;-65
2022/04/14 08:59:56;;;;;;;31.40;21.95;;;19.40;99.90;;;;;;4124028;28;20129;-64
2022/04/14 09:02:03;;;;;;;30.00;22.10;;;19.50;99.90;;;;;;4121517;28;20038;-64
2022/04/14 09:04:05;;;;;;;34.67;23.58;;;19.60;99.90;;;;;;4123636;28;20493;-64
2022/04/14 09:06:07;;;;;;;35.58;23.77;;;19.60;99.90;;;;;;4121935;28;20031;-64
2022/04/14 09:08:07;;;;;;;32.33;22.20;;;19.60;99.90;;;;;;4121356;28;20061;-63
2022/04/14 09:10:08;;;;;;;26.42;19.05;;;19.60;99.90;;;;;;4124819;28;20023;-64
2022/04/14 09:12:10;;;;;;;38.63;24.40;;;19.70;99.90;;;;;;4122400;28;20141;-63
2022/04/14 09:14:11;;;;;;;36.58;23.70;;;19.60;99.90;;;;;;4124827;28;20032;-63
2022/04/14 09:16:11;;;;;;;31.52;22.70;;;19.60;99.90;;;;;;4122926;28;20042;-65
2022/04/14 09:18:13;;;;;;;30.75;21.02;;;19.60;99.90;;;;;;4124902;28;20027;-64
2022/04/14 09:20:37;;;;;;;27.17;19.37;;;19.60;99.90;;;;;;4121540;28;20130;-64
2022/04/14 09:22:37;;;;;;;25.77;17.85;;;19.70;99.90;;;;;;4123415;28;20038;-64
2022/04/14 09:24:50;;;;;;;25.85;17.42;;;19.70;99.90;;;;;;4124155;28;20030;-63
2022/04/14 09:26:51;;;;;;;29.60;21.03;;;19.70;99.90;;;;;;4122212;28;20041;-63
2022/04/14 09:29:04;;;;;;;24.90;17.48;;;19.70;99.90;;;;;;4122549;28;20300;-64
2022/04/14 09:31:07;;;;;;;26.27;17.58;;;19.80;99.90;;;;;;4121926;28;20034;-63
2022/04/14 09:33:16;;;;;;;22.88;15.85;;;19.70;99.90;;;;;;4122366;28;20092;-64
2022/04/14 09:35:22;;;;;;;21.38;14.32;;;19.80;99.90;;;;;;4121597;28;20169;-63
2022/04/14 09:37:24;;;;;;;24.25;16.95;;;19.90;99.90;;;;;;4124558;28;20034;-64
2022/04/14 09:39:24;;;;;;;20.13;14.38;;;19.90;99.90;;;;;;4122802;28;20516;-63
2022/04/14 09:41:32;;;;;;;22.00;14.38;;;20.00;99.90;;;;;;4123863;28;20041;-63
2022/04/14 09:43:32;;;;;;;22.75;15.60;;;20.10;99.90;;;;;;4123718;28;20064;-63
2022/04/14 09:45:33;;;;;;;24.10;17.33;;;20.10;99.90;;;;;;4124583;28;20042;-64
2022/04/14 09:47:38;;;;;;;24.05;17.40;;;20.20;99.90;;;;;;4124067;28;20042;-63
2022/04/14 09:49:41;;;;;;;23.48;15.05;;;20.20;99.90;;;;;;4125782;28;20085;-63
2022/04/14 09:51:45;;;;;;;21.10;14.98;;;20.30;99.90;;;;;;4123407;28;20052;-63
2022/04/14 09:53:45;;;;;;;19.08;14.88;;;20.40;99.90;;;;;;4123723;28;20490;-63
2022/04/14 09:55:52;;;;;;;22.05;14.68;;;20.40;99.90;;;;;;4124886;28;20036;-63
2022/04/14 09:58:15;;;;;;;27.77;16.33;;;20.40;99.90;;;;;;4122887;28;20896;-64
2022/04/14 10:00:36;;;;;;;18.30;13.70;;;20.50;99.90;;;;;;4123682;28;20520;-64
2022/04/14 10:02:36;;;;;;;19.52;13.13;;;20.50;99.90;;;;;;4122009;28;20088;-64
2022/04/14 10:04:39;;;;;;;18.25;12.77;;;20.60;99.90;;;;;;4124771;28;20558;-63
2022/04/14 10:07:04;;;;;;;17.58;12.57;;;20.70;99.90;;;;;;4123400;28;20176;-63
2022/04/14 10:09:04;;;;;;;20.55;12.98;;;20.70;99.90;;;;;;4122194;28;20364;-64
2022/04/14 10:11:06;;;;;;;16.83;11.73;;;20.70;99.90;;;;;;4123350;28;20054;-63
2022/04/14 10:13:09;;;;;;;18.38;13.00;;;20.70;99.90;;;;;;4120550;28;20486;-64
2022/04/14 10:15:10;;;;;;;19.88;13.90;;;20.70;99.90;;;;;;4127492;28;20031;-64
2022/04/14 10:17:12;;;;;;;24.15;14.10;;;20.70;99.90;;;;;;4127473;28;20084;-64
2022/04/14 10:19:14;;;;;;;16.48;11.43;;;20.50;99.90;;;;;;4123923;28;20104;-64